sensor_id;sensor_type;location;lat;lon;timestamp;P1;durP1;ratioP1;P2;durP2;ratioP2
25237;SDS011;13185;50.872;5.306;2022-10-17T00:00:32;6.57;;;3.80;;
25237;SDS011;13185;50.872;5.306;2022-10-17T00:02:57;5.75;;;3.80;;
25237;SDS011;13185;50.872;5.306;2022-10-17T00:05:23;7.47;;;4.28;;
25237;SDS011;13185;50.872;5.306;2022-10-17T00:07:49;6.53;;;3.90;;
25237;SDS011;13185;50.872;5.306;2022-10-17T00:10:15;7.28;;;4.05;;
25237;SDS011;13185;50.872;5.306;2022-10-17T00:12:41;7.40;;;4.47;;
25237;SDS011;13185;50.872;5.306;2022-10-17T00:15:06;15.75;;;3.92;;
25237;SDS011;13185;50.872;5.306;2022-10-17T00:17:32;6.88;;;3.83;;
25237;SDS011;13185;50.872;5.306;2022-10-17T00:19:58;7.50;;;3.67;;
25237;SDS011;13185;50.872;5.306;2022-10-17T00:22:25;4.63;;;3.58;;
25237;SDS011;13185;50.872;5.306;2022-10-17T00:24:51;7.28;;;4.63;;
25237;SDS011;13185;50.872;5.306;2022-10-17T00:27:16;8.55;;;4.55;;
25237;SDS011;13185;50.872;5.306;2022-10-17T00:29:42;5.82;;;5.07;;
25237;SDS011;13185;50.872;5.306;2022-10-17T00:32:07;12.32;;;5.75;;
25237;SDS011;13185;50.872;5.306;2022-10-17T00:34:33;11.45;;;5.75;;
25237;SDS011;13185;50.872;5.306;2022-10-17T00:36:58;8.65;;;6.18;;
25237;SDS011;13185;50.872;5.306;2022-10-17T00:39:24;10.43;;;6.07;;
25237;SDS011;13185;50.872;5.306;2022-10-17T00:41:49;7.32;;;5.68;;
25237;SDS011;13185;50.872;5.306;2022-10-17T00:47:05;8.57;;;6.43;;
25237;SDS011;13185;50.872;5.306;2022-10-17T00:49:35;9.88;;;6.07;;
25237;SDS011;13185;50.872;5.306;2022-10-17T00:52:07;11.20;;;5.60;;
25237;SDS011;13185;50.872;5.306;2022-10-17T00:54:36;6.30;;;5.47;;
25237;SDS011;13185;50.872;5.306;2022-10-17T00:57:04;7.03;;;5.60;;
25237;SDS011;13185;50.872;5.306;2022-10-17T00:59:35;12.63;;;5.45;;
25237;SDS011;13185;50.872;5.306;2022-10-17T01:02:04;9.20;;;6.03;;
25237;SDS011;13185;50.872;5.306;2022-10-17T01:04:32;7.55;;;5.15;;
25237;SDS011;13185;50.872;5.306;2022-10-17T01:06:57;9.82;;;5.45;;
25237;SDS011;13185;50.872;5.306;2022-10-17T01:09:23;5.82;;;5.22;;
25237;SDS011;13185;50.872;5.306;2022-10-17T01:16:51;13.65;;;5.35;;
25237;SDS011;13185;50.872;5.306;2022-10-17T01:29:58;6.07;;;5.47;;
25237;SDS011;13185;50.872;5.306;2022-10-17T01:32:34;9.07;;;4.60;;
25237;SDS011;13185;50.872;5.306;2022-10-17T01:38:08;8.63;;;5.03;;
25237;SDS011;13185;50.872;5.306;2022-10-17T01:40:41;5.13;;;4.63;;
25237;SDS011;13185;50.872;5.306;2022-10-17T01:45:58;6.32;;;4.97;;
25237;SDS011;13185;50.872;5.306;2022-10-17T01:48:33;8.05;;;4.95;;
25237;SDS011;13185;50.872;5.306;2022-10-17T01:51:06;5.07;;;4.30;;
25237;SDS011;13185;50.872;5.306;2022-10-17T01:53:40;7.82;;;4.53;;
25237;SDS011;13185;50.872;5.306;2022-10-17T01:56:13;8.25;;;4.53;;
25237;SDS011;13185;50.872;5.306;2022-10-17T01:58:51;9.60;;;4.25;;
25237;SDS011;13185;50.872;5.306;2022-10-17T02:01:21;7.85;;;4.50;;
25237;SDS011;13185;50.872;5.306;2022-10-17T02:03:50;6.75;;;4.65;;
25237;SDS011;13185;50.872;5.306;2022-10-17T02:06:17;8.80;;;5.13;;
25237;SDS011;13185;50.872;5.306;2022-10-17T02:08:44;5.95;;;4.30;;
25237;SDS011;13185;50.872;5.306;2022-10-17T02:11:13;6.18;;;4.38;;
25237;SDS011;13185;50.872;5.306;2022-10-17T02:16:42;4.80;;;3.97;;
25237;SDS011;13185;50.872;5.306;2022-10-17T02:19:29;10.00;;;4.20;;
25237;SDS011;13185;50.872;5.306;2022-10-17T02:22:13;15.85;;;4.85;;
25237;SDS011;13185;50.872;5.306;2022-10-17T02:27:57;6.88;;;4.40;;
25237;SDS011;13185;50.872;5.306;2022-10-17T02:30:28;8.85;;;4.45;;
25237;SDS011;13185;50.872;5.306;2022-10-17T02:35:37;6.35;;;4.20;;
25237;SDS011;13185;50.872;5.306;2022-10-17T02:38:08;6.30;;;4.40;;
25237;SDS011;13185;50.872;5.306;2022-10-17T02:40:36;5.35;;;4.18;;
25237;SDS011;13185;50.872;5.306;2022-10-17T02:43:04;7.15;;;4.47;;
25237;SDS011;13185;50.872;5.306;2022-10-17T02:45:29;8.13;;;4.28;;
25237;SDS011;13185;50.872;5.306;2022-10-17T02:53:43;5.80;;;3.75;;
25237;SDS011;13185;50.872;5.306;2022-10-17T02:56:18;7.78;;;4.30;;
25237;SDS011;13185;50.872;5.306;2022-10-17T02:58:45;4.70;;;3.47;;
25237;SDS011;13185;50.872;5.306;2022-10-17T03:01:16;8.18;;;3.95;;
25237;SDS011;13185;50.872;5.306;2022-10-17T03:03:43;6.45;;;4.22;;
25237;SDS011;13185;50.872;5.306;2022-10-17T03:06:08;8.00;;;4.00;;
25237;SDS011;13185;50.872;5.306;2022-10-17T03:08:34;5.53;;;3.67;;
25237;SDS011;13185;50.872;5.306;2022-10-17T03:11:00;5.43;;;4.30;;
25237;SDS011;13185;50.872;5.306;2022-10-17T03:13:26;4.90;;;3.85;;
25237;SDS011;13185;50.872;5.306;2022-10-17T03:15:53;6.32;;;4.25;;
25237;SDS011;13185;50.872;5.306;2022-10-17T03:18:20;4.88;;;3.80;;
25237;SDS011;13185;50.872;5.306;2022-10-17T03:20:47;6.03;;;3.78;;
25237;SDS011;13185;50.872;5.306;2022-10-17T03:23:13;6.05;;;4.10;;
25237;SDS011;13185;50.872;5.306;2022-10-17T03:25:39;8.80;;;4.38;;
25237;SDS011;13185;50.872;5.306;2022-10-17T03:28:04;6.13;;;3.92;;
25237;SDS011;13185;50.872;5.306;2022-10-17T03:30:30;10.25;;;3.97;;
25237;SDS011;13185;50.872;5.306;2022-10-17T03:32:57;5.78;;;4.20;;
25237;SDS011;13185;50.872;5.306;2022-10-17T03:35:23;6.40;;;3.60;;
25237;SDS011;13185;50.872;5.306;2022-10-17T03:37:50;4.95;;;4.28;;
25237;SDS011;13185;50.872;5.306;2022-10-17T03:40:18;5.93;;;3.55;;
25237;SDS011;13185;50.872;5.306;2022-10-17T03:42:44;6.20;;;3.85;;
25237;SDS011;13185;50.872;5.306;2022-10-17T03:45:09;7.38;;;3.42;;
25237;SDS011;13185;50.872;5.306;2022-10-17T03:47:35;4.28;;;3.88;;
25237;SDS011;13185;50.872;5.306;2022-10-17T03:50:01;7.60;;;4.50;;
25237;SDS011;13185;50.872;5.306;2022-10-17T03:52:29;6.95;;;4.50;;
25237;SDS011;13185;50.872;5.306;2022-10-17T03:54:54;10.90;;;4.70;;
25237;SDS011;13185;50.872;5.306;2022-10-17T03:57:20;4.00;;;3.60;;
25237;SDS011;13185;50.872;5.306;2022-10-17T03:59:46;4.57;;;3.17;;
25237;SDS011;13185;50.872;5.306;2022-10-17T04:02:15;7.05;;;3.92;;
25237;SDS011;13185;50.872;5.306;2022-10-17T04:04:42;5.28;;;3.70;;
25237;SDS011;13185;50.872;5.306;2022-10-17T04:07:07;9.35;;;3.72;;
25237;SDS011;13185;50.872;5.306;2022-10-17T04:09:36;6.13;;;3.72;;
25237;SDS011;13185;50.872;5.306;2022-10-17T04:12:06;5.22;;;4.00;;
25237;SDS011;13185;50.872;5.306;2022-10-17T04:14:35;7.38;;;4.03;;
25237;SDS011;13185;50.872;5.306;2022-10-17T04:17:01;5.13;;;3.95;;
25237;SDS011;13185;50.872;5.306;2022-10-17T04:19:27;9.30;;;4.45;;
25237;SDS011;13185;50.872;5.306;2022-10-17T04:21:53;3.78;;;3.47;;
25237;SDS011;13185;50.872;5.306;2022-10-17T04:24:19;8.70;;;3.47;;
25237;SDS011;13185;50.872;5.306;2022-10-17T04:26:51;7.13;;;3.22;;
25237;SDS011;13185;50.872;5.306;2022-10-17T04:29:18;4.90;;;3.33;;
25237;SDS011;13185;50.872;5.306;2022-10-17T04:31:46;7.85;;;3.92;;
25237;SDS011;13185;50.872;5.306;2022-10-17T04:34:20;7.30;;;3.70;;
25237;SDS011;13185;50.872;5.306;2022-10-17T04:36:46;4.03;;;2.97;;
25237;SDS011;13185;50.872;5.306;2022-10-17T04:39:12;5.72;;;3.47;;
25237;SDS011;13185;50.872;5.306;2022-10-17T04:41:38;6.38;;;3.25;;
25237;SDS011;13185;50.872;5.306;2022-10-17T04:44:03;7.57;;;3.60;;
25237;SDS011;13185;50.872;5.306;2022-10-17T04:46:32;8.02;;;3.13;;
25237;SDS011;13185;50.872;5.306;2022-10-17T04:48:58;6.15;;;3.92;;
25237;SDS011;13185;50.872;5.306;2022-10-17T04:51:24;6.47;;;3.58;;
25237;SDS011;13185;50.872;5.306;2022-10-17T04:54:09;8.38;;;3.70;;
25237;SDS011;13185;50.872;5.306;2022-10-17T04:56:37;6.85;;;3.72;;
25237;SDS011;13185;50.872;5.306;2022-10-17T04:59:02;4.65;;;3.08;;
25237;SDS011;13185;50.872;5.306;2022-10-17T05:01:28;4.28;;;3.63;;
25237;SDS011;13185;50.872;5.306;2022-10-17T05:03:55;5.15;;;3.33;;
25237;SDS011;13185;50.872;5.306;2022-10-17T05:06:21;8.30;;;3.05;;
25237;SDS011;13185;50.872;5.306;2022-10-17T05:09:07;4.97;;;3.30;;
25237;SDS011;13185;50.872;5.306;2022-10-17T05:11:32;5.85;;;3.30;;
25237;SDS011;13185;50.872;5.306;2022-10-17T05:13:59;3.55;;;3.22;;
25237;SDS011;13185;50.872;5.306;2022-10-17T05:16:26;4.95;;;3.17;;
25237;SDS011;13185;50.872;5.306;2022-10-17T05:18:54;6.30;;;3.38;;
25237;SDS011;13185;50.872;5.306;2022-10-17T05:21:22;5.30;;;3.50;;
25237;SDS011;13185;50.872;5.306;2022-10-17T05:23:49;7.25;;;3.50;;
25237;SDS011;13185;50.872;5.306;2022-10-17T05:26:15;6.70;;;3.50;;
25237;SDS011;13185;50.872;5.306;2022-10-17T05:28:41;7.82;;;3.38;;
25237;SDS011;13185;50.872;5.306;2022-10-17T05:31:08;4.88;;;3.60;;
25237;SDS011;13185;50.872;5.306;2022-10-17T05:33:34;6.78;;;3.60;;
25237;SDS011;13185;50.872;5.306;2022-10-17T05:36:01;5.60;;;3.67;;
25237;SDS011;13185;50.872;5.306;2022-10-17T05:38:27;6.70;;;3.97;;
25237;SDS011;13185;50.872;5.306;2022-10-17T05:40:57;4.13;;;3.55;;
25237;SDS011;13185;50.872;5.306;2022-10-17T05:43:24;4.65;;;3.28;;
25237;SDS011;13185;50.872;5.306;2022-10-17T05:45:51;4.13;;;3.38;;
25237;SDS011;13185;50.872;5.306;2022-10-17T05:48:19;4.78;;;3.22;;
25237;SDS011;13185;50.872;5.306;2022-10-17T05:50:45;9.50;;;2.97;;
25237;SDS011;13185;50.872;5.306;2022-10-17T05:53:14;12.43;;;4.10;;
25237;SDS011;13185;50.872;5.306;2022-10-17T05:55:44;6.97;;;3.80;;
25237;SDS011;13185;50.872;5.306;2022-10-17T05:58:11;5.63;;;3.42;;
25237;SDS011;13185;50.872;5.306;2022-10-17T06:00:41;4.75;;;3.03;;
25237;SDS011;13185;50.872;5.306;2022-10-17T06:03:08;6.57;;;3.03;;
25237;SDS011;13185;50.872;5.306;2022-10-17T06:05:36;7.90;;;3.38;;
25237;SDS011;13185;50.872;5.306;2022-10-17T06:08:01;6.28;;;3.95;;
25237;SDS011;13185;50.872;5.306;2022-10-17T06:10:28;5.72;;;3.25;;
25237;SDS011;13185;50.872;5.306;2022-10-17T06:12:54;6.90;;;3.65;;
25237;SDS011;13185;50.872;5.306;2022-10-17T06:15:20;6.93;;;3.17;;
25237;SDS011;13185;50.872;5.306;2022-10-17T06:17:54;6.72;;;3.88;;
25237;SDS011;13185;50.872;5.306;2022-10-17T06:20:20;8.05;;;3.33;;
25237;SDS011;13185;50.872;5.306;2022-10-17T06:22:46;7.05;;;3.60;;
25237;SDS011;13185;50.872;5.306;2022-10-17T06:25:19;4.93;;;2.90;;
25237;SDS011;13185;50.872;5.306;2022-10-17T06:27:45;5.32;;;2.78;;
25237;SDS011;13185;50.872;5.306;2022-10-17T06:30:10;7.15;;;3.28;;
25237;SDS011;13185;50.872;5.306;2022-10-17T06:32:36;7.57;;;3.33;;
25237;SDS011;13185;50.872;5.306;2022-10-17T06:35:01;6.13;;;2.80;;
25237;SDS011;13185;50.872;5.306;2022-10-17T06:37:31;10.60;;;3.30;;
25237;SDS011;13185;50.872;5.306;2022-10-17T06:39:58;6.55;;;3.10;;
25237;SDS011;13185;50.872;5.306;2022-10-17T06:42:24;6.13;;;2.75;;
25237;SDS011;13185;50.872;5.306;2022-10-17T06:45:03;9.15;;;3.42;;
25237;SDS011;13185;50.872;5.306;2022-10-17T06:47:38;6.00;;;3.35;;
25237;SDS011;13185;50.872;5.306;2022-10-17T06:50:19;10.60;;;3.10;;
25237;SDS011;13185;50.872;5.306;2022-10-17T06:53:08;4.85;;;3.05;;
25237;SDS011;13185;50.872;5.306;2022-10-17T06:55:51;5.28;;;2.50;;
25237;SDS011;13185;50.872;5.306;2022-10-17T06:58:44;6.55;;;3.28;;
25237;SDS011;13185;50.872;5.306;2022-10-17T07:01:23;41.50;;;6.50;;
25237;SDS011;13185;50.872;5.306;2022-10-17T07:03:53;21.55;;;4.43;;
25237;SDS011;13185;50.872;5.306;2022-10-17T07:06:18;8.15;;;3.47;;
25237;SDS011;13185;50.872;5.306;2022-10-17T07:08:45;5.80;;;2.90;;
25237;SDS011;13185;50.872;5.306;2022-10-17T07:11:14;5.03;;;2.58;;
25237;SDS011;13185;50.872;5.306;2022-10-17T07:13:41;4.80;;;2.67;;
25237;SDS011;13185;50.872;5.306;2022-10-17T07:16:07;14.75;;;3.78;;
25237;SDS011;13185;50.872;5.306;2022-10-17T07:18:34;3.80;;;2.97;;
25237;SDS011;13185;50.872;5.306;2022-10-17T07:20:59;8.35;;;3.50;;
25237;SDS011;13185;50.872;5.306;2022-10-17T07:23:25;5.22;;;2.92;;
25237;SDS011;13185;50.872;5.306;2022-10-17T07:25:51;8.15;;;3.00;;
25237;SDS011;13185;50.872;5.306;2022-10-17T07:28:17;12.57;;;3.45;;
25237;SDS011;13185;50.872;5.306;2022-10-17T07:30:44;11.13;;;3.72;;
25237;SDS011;13185;50.872;5.306;2022-10-17T07:33:10;6.50;;;3.13;;
25237;SDS011;13185;50.872;5.306;2022-10-17T07:35:37;6.25;;;3.00;;
25237;SDS011;13185;50.872;5.306;2022-10-17T07:38:05;9.65;;;2.97;;
25237;SDS011;13185;50.872;5.306;2022-10-17T07:40:31;7.82;;;2.90;;
25237;SDS011;13185;50.872;5.306;2022-10-17T07:42:57;8.30;;;2.85;;
25237;SDS011;13185;50.872;5.306;2022-10-17T07:45:24;66.47;;;8.65;;
25237;SDS011;13185;50.872;5.306;2022-10-17T07:47:58;42.17;;;6.53;;
25237;SDS011;13185;50.872;5.306;2022-10-17T07:50:23;9.65;;;3.28;;
25237;SDS011;13185;50.872;5.306;2022-10-17T07:52:48;10.95;;;3.28;;
25237;SDS011;13185;50.872;5.306;2022-10-17T07:55:14;10.13;;;3.00;;
25237;SDS011;13185;50.872;5.306;2022-10-17T07:57:40;47.25;;;5.47;;
25237;SDS011;13185;50.872;5.306;2022-10-17T08:00:06;11.13;;;3.00;;
25237;SDS011;13185;50.872;5.306;2022-10-17T08:02:37;7.90;;;3.40;;
25237;SDS011;13185;50.872;5.306;2022-10-17T08:05:03;7.90;;;3.00;;
25237;SDS011;13185;50.872;5.306;2022-10-17T08:07:29;6.22;;;3.00;;
25237;SDS011;13185;50.872;5.306;2022-10-17T08:09:54;10.50;;;3.00;;
25237;SDS011;13185;50.872;5.306;2022-10-17T08:12:20;7.63;;;2.75;;
25237;SDS011;13185;50.872;5.306;2022-10-17T08:14:46;4.63;;;2.75;;
25237;SDS011;13185;50.872;5.306;2022-10-17T08:17:12;5.47;;;2.45;;
25237;SDS011;13185;50.872;5.306;2022-10-17T08:19:38;9.02;;;2.50;;
25237;SDS011;13185;50.872;5.306;2022-10-17T08:22:04;14.30;;;2.90;;
25237;SDS011;13185;50.872;5.306;2022-10-17T08:24:30;8.27;;;2.67;;
25237;SDS011;13185;50.872;5.306;2022-10-17T08:26:56;2.70;;;1.98;;
25237;SDS011;13185;50.872;5.306;2022-10-17T08:29:22;8.27;;;3.75;;
25237;SDS011;13185;50.872;5.306;2022-10-17T08:31:47;8.00;;;3.13;;
25237;SDS011;13185;50.872;5.306;2022-10-17T08:34:13;7.82;;;2.35;;
25237;SDS011;13185;50.872;5.306;2022-10-17T08:36:40;6.93;;;3.25;;
25237;SDS011;13185;50.872;5.306;2022-10-17T08:39:06;5.60;;;2.47;;
25237;SDS011;13185;50.872;5.306;2022-10-17T08:50:01;5.32;;;2.83;;
25237;SDS011;13185;50.872;5.306;2022-10-17T08:55:39;7.53;;;2.92;;
25237;SDS011;13185;50.872;5.306;2022-10-17T08:58:22;6.28;;;2.80;;
25237;SDS011;13185;50.872;5.306;2022-10-17T09:03:43;5.95;;;2.70;;
25237;SDS011;13185;50.872;5.306;2022-10-17T09:06:27;6.90;;;2.42;;
25237;SDS011;13185;50.872;5.306;2022-10-17T09:12:19;6.47;;;2.63;;
25237;SDS011;13185;50.872;5.306;2022-10-17T09:15:02;10.98;;;3.13;;
25237;SDS011;13185;50.872;5.306;2022-10-17T09:20:32;9.30;;;2.95;;
25237;SDS011;13185;50.872;5.306;2022-10-17T09:25:55;6.95;;;2.65;;
25237;SDS011;13185;50.872;5.306;2022-10-17T09:33:27;7.90;;;2.50;;
25237;SDS011;13185;50.872;5.306;2022-10-17T09:35:55;7.27;;;2.93;;
25237;SDS011;13185;50.872;5.306;2022-10-17T09:38:23;19.08;;;3.78;;
25237;SDS011;13185;50.872;5.306;2022-10-17T09:40:54;11.55;;;3.30;;
25237;SDS011;13185;50.872;5.306;2022-10-17T09:43:24;13.50;;;3.88;;
25237;SDS011;13185;50.872;5.306;2022-10-17T09:45:58;13.50;;;4.05;;
25237;SDS011;13185;50.872;5.306;2022-10-17T09:48:43;6.80;;;3.13;;
25237;SDS011;13185;50.872;5.306;2022-10-17T09:51:13;10.85;;;3.47;;
25237;SDS011;13185;50.872;5.306;2022-10-17T09:53:41;7.03;;;2.92;;
25237;SDS011;13185;50.872;5.306;2022-10-17T09:56:12;5.65;;;3.53;;
25237;SDS011;13185;50.872;5.306;2022-10-17T10:03:46;8.13;;;2.92;;
25237;SDS011;13185;50.872;5.306;2022-10-17T10:06:14;9.50;;;3.30;;
25237;SDS011;13185;50.872;5.306;2022-10-17T10:08:48;9.10;;;2.90;;
25237;SDS011;13185;50.872;5.306;2022-10-17T10:11:17;6.22;;;2.85;;
25237;SDS011;13185;50.872;5.306;2022-10-17T10:13:47;6.70;;;2.55;;
25237;SDS011;13185;50.872;5.306;2022-10-17T10:18:42;8.93;;;2.83;;
25237;SDS011;13185;50.872;5.306;2022-10-17T10:21:09;9.80;;;3.60;;
25237;SDS011;13185;50.872;5.306;2022-10-17T10:23:41;8.23;;;3.53;;
25237;SDS011;13185;50.872;5.306;2022-10-17T10:26:16;4.53;;;3.00;;
25237;SDS011;13185;50.872;5.306;2022-10-17T10:29:06;5.53;;;3.10;;
25237;SDS011;13185;50.872;5.306;2022-10-17T10:35:21;10.07;;;3.58;;
25237;SDS011;13185;50.872;5.306;2022-10-17T10:37:52;5.45;;;2.25;;
25237;SDS011;13185;50.872;5.306;2022-10-17T10:40:24;6.40;;;2.60;;
25237;SDS011;13185;50.872;5.306;2022-10-17T10:42:55;5.82;;;2.70;;
25237;SDS011;13185;50.872;5.306;2022-10-17T10:45:23;3.70;;;2.10;;
25237;SDS011;13185;50.872;5.306;2022-10-17T10:47:51;8.38;;;2.90;;
25237;SDS011;13185;50.872;5.306;2022-10-17T11:07:10;5.88;;;2.97;;
25237;SDS011;13185;50.872;5.306;2022-10-17T11:12:19;7.95;;;2.45;;
25237;SDS011;13185;50.872;5.306;2022-10-17T11:17:32;12.13;;;1.98;;
25237;SDS011;13185;50.872;5.306;2022-10-17T11:22:51;7.00;;;1.90;;
25237;SDS011;13185;50.872;5.306;2022-10-17T11:25:32;8.85;;;2.13;;
25237;SDS011;13185;50.872;5.306;2022-10-17T11:28:00;5.60;;;1.88;;
25237;SDS011;13185;50.872;5.306;2022-10-17T11:30:29;5.28;;;1.85;;
25237;SDS011;13185;50.872;5.306;2022-10-17T11:33:42;7.50;;;1.92;;
25237;SDS011;13185;50.872;5.306;2022-10-17T11:36:11;6.43;;;2.03;;
25237;SDS011;13185;50.872;5.306;2022-10-17T11:38:44;6.68;;;1.90;;
25237;SDS011;13185;50.872;5.306;2022-10-17T11:41:25;3.22;;;1.98;;
25237;SDS011;13185;50.872;5.306;2022-10-17T11:43:59;2.70;;;1.70;;
25237;SDS011;13185;50.872;5.306;2022-10-17T11:46:47;5.40;;;2.05;;
25237;SDS011;13185;50.872;5.306;2022-10-17T11:49:18;14.53;;;2.87;;
25237;SDS011;13185;50.872;5.306;2022-10-17T11:54:55;6.68;;;2.55;;
25237;SDS011;13185;50.872;5.306;2022-10-17T12:00:30;54.00;;;7.88;;
25237;SDS011;13185;50.872;5.306;2022-10-17T12:05:59;44.95;;;4.78;;
25237;SDS011;13185;50.872;5.306;2022-10-17T12:08:51;12.23;;;2.38;;
25237;SDS011;13185;50.872;5.306;2022-10-17T12:13:53;9.50;;;2.50;;
25237;SDS011;13185;50.872;5.306;2022-10-17T12:18:46;8.02;;;2.53;;
25237;SDS011;13185;50.872;5.306;2022-10-17T12:21:24;5.90;;;2.00;;
25237;SDS011;13185;50.872;5.306;2022-10-17T12:23:51;6.82;;;2.47;;
25237;SDS011;13185;50.872;5.306;2022-10-17T12:26:24;4.97;;;2.22;;
25237;SDS011;13185;50.872;5.306;2022-10-17T12:28:52;7.70;;;2.33;;
25237;SDS011;13185;50.872;5.306;2022-10-17T12:33:49;5.00;;;2.70;;
25237;SDS011;13185;50.872;5.306;2022-10-17T12:46:46;5.05;;;2.00;;
25237;SDS011;13185;50.872;5.306;2022-10-17T12:54:30;11.60;;;2.95;;
25237;SDS011;13185;50.872;5.306;2022-10-17T12:57:02;9.18;;;2.58;;
25237;SDS011;13185;50.872;5.306;2022-10-17T12:59:43;9.82;;;3.15;;
25237;SDS011;13185;50.872;5.306;2022-10-17T13:02:11;6.75;;;2.63;;
25237;SDS011;13185;50.872;5.306;2022-10-17T13:04:43;8.55;;;3.47;;
25237;SDS011;13185;50.872;5.306;2022-10-17T13:07:15;9.50;;;3.80;;
25237;SDS011;13185;50.872;5.306;2022-10-17T13:09:45;10.30;;;3.30;;
25237;SDS011;13185;50.872;5.306;2022-10-17T13:12:13;8.80;;;2.75;;
25237;SDS011;13185;50.872;5.306;2022-10-17T13:14:42;5.55;;;2.58;;
25237;SDS011;13185;50.872;5.306;2022-10-17T13:17:21;11.75;;;2.83;;
25237;SDS011;13185;50.872;5.306;2022-10-17T13:19:54;6.55;;;2.83;;
25237;SDS011;13185;50.872;5.306;2022-10-17T13:22:20;6.03;;;2.45;;
25237;SDS011;13185;50.872;5.306;2022-10-17T13:24:51;5.90;;;2.83;;
25237;SDS011;13185;50.872;5.306;2022-10-17T13:29:51;7.88;;;2.50;;
25237;SDS011;13185;50.872;5.306;2022-10-17T13:32:20;6.40;;;2.85;;
25237;SDS011;13185;50.872;5.306;2022-10-17T13:34:46;8.55;;;2.85;;
25237;SDS011;13185;50.872;5.306;2022-10-17T13:37:41;7.10;;;2.85;;
25237;SDS011;13185;50.872;5.306;2022-10-17T13:40:19;6.88;;;3.17;;
25237;SDS011;13185;50.872;5.306;2022-10-17T13:42:45;6.78;;;2.53;;
25237;SDS011;13185;50.872;5.306;2022-10-17T13:45:30;5.32;;;2.92;;
25237;SDS011;13185;50.872;5.306;2022-10-17T13:48:04;7.43;;;3.03;;
25237;SDS011;13185;50.872;5.306;2022-10-17T13:50:41;7.38;;;3.25;;
25237;SDS011;13185;50.872;5.306;2022-10-17T13:55:56;5.20;;;2.78;;
25237;SDS011;13185;50.872;5.306;2022-10-17T14:01:27;6.55;;;3.30;;
25237;SDS011;13185;50.872;5.306;2022-10-17T14:03:53;8.50;;;3.85;;
25237;SDS011;13185;50.872;5.306;2022-10-17T14:06:22;10.93;;;3.72;;
25237;SDS011;13185;50.872;5.306;2022-10-17T14:08:59;8.13;;;3.28;;
25237;SDS011;13185;50.872;5.306;2022-10-17T14:13:57;6.28;;;3.03;;
25237;SDS011;13185;50.872;5.306;2022-10-17T14:16:24;7.32;;;3.03;;
25237;SDS011;13185;50.872;5.306;2022-10-17T14:18:51;12.20;;;3.72;;
25237;SDS011;13185;50.872;5.306;2022-10-17T14:21:19;10.43;;;3.88;;
25237;SDS011;13185;50.872;5.306;2022-10-17T14:23:51;7.93;;;3.70;;
25237;SDS011;13185;50.872;5.306;2022-10-17T14:26:44;6.40;;;3.40;;
25237;SDS011;13185;50.872;5.306;2022-10-17T14:32:01;5.30;;;3.28;;
25237;SDS011;13185;50.872;5.306;2022-10-17T14:34:33;5.32;;;3.58;;
25237;SDS011;13185;50.872;5.306;2022-10-17T14:37:01;9.10;;;4.65;;
25237;SDS011;13185;50.872;5.306;2022-10-17T14:39:32;6.25;;;3.55;;
25237;SDS011;13185;50.872;5.306;2022-10-17T14:41:57;5.72;;;3.20;;
25237;SDS011;13185;50.872;5.306;2022-10-17T14:44:28;10.10;;;3.90;;
25237;SDS011;13185;50.872;5.306;2022-10-17T14:47:11;16.35;;;4.90;;
25237;SDS011;13185;50.872;5.306;2022-10-17T14:49:43;20.60;;;4.63;;
25237;SDS011;13185;50.872;5.306;2022-10-17T14:52:29;6.47;;;3.65;;
25237;SDS011;13185;50.872;5.306;2022-10-17T14:54:55;8.00;;;3.80;;
25237;SDS011;13185;50.872;5.306;2022-10-17T14:57:23;12.32;;;4.60;;
25237;SDS011;13185;50.872;5.306;2022-10-17T14:59:50;10.02;;;3.53;;
25237;SDS011;13185;50.872;5.306;2022-10-17T15:02:15;42.92;;;7.53;;
25237;SDS011;13185;50.872;5.306;2022-10-17T15:04:41;24.98;;;6.07;;
25237;SDS011;13185;50.872;5.306;2022-10-17T15:07:08;14.90;;;4.93;;
25237;SDS011;13185;50.872;5.306;2022-10-17T15:09:38;9.10;;;3.85;;
25237;SDS011;13185;50.872;5.306;2022-10-17T15:12:05;13.43;;;4.00;;
25237;SDS011;13185;50.872;5.306;2022-10-17T15:14:36;21.85;;;5.30;;
25237;SDS011;13185;50.872;5.306;2022-10-17T15:17:04;9.20;;;4.15;;
25237;SDS011;13185;50.872;5.306;2022-10-17T15:19:34;17.98;;;4.35;;
25237;SDS011;13185;50.872;5.306;2022-10-17T15:21:59;11.07;;;3.85;;
25237;SDS011;13185;50.872;5.306;2022-10-17T15:24:25;19.23;;;3.85;;
25237;SDS011;13185;50.872;5.306;2022-10-17T15:26:50;12.73;;;4.10;;
25237;SDS011;13185;50.872;5.306;2022-10-17T15:29:16;31.40;;;4.68;;
25237;SDS011;13185;50.872;5.306;2022-10-17T15:31:41;17.95;;;4.18;;
25237;SDS011;13185;50.872;5.306;2022-10-17T15:34:07;16.98;;;4.30;;
25237;SDS011;13185;50.872;5.306;2022-10-17T15:36:34;9.75;;;3.67;;
25237;SDS011;13185;50.872;5.306;2022-10-17T15:39:04;8.70;;;3.05;;
25237;SDS011;13185;50.872;5.306;2022-10-17T15:41:30;4.65;;;2.60;;
25237;SDS011;13185;50.872;5.306;2022-10-17T15:43:57;5.10;;;3.35;;
25237;SDS011;13185;50.872;5.306;2022-10-17T15:46:24;5.03;;;3.47;;
25237;SDS011;13185;50.872;5.306;2022-10-17T15:48:52;8.55;;;3.10;;
25237;SDS011;13185;50.872;5.306;2022-10-17T15:51:19;5.78;;;2.60;;
25237;SDS011;13185;50.872;5.306;2022-10-17T15:53:45;5.15;;;2.30;;
25237;SDS011;13185;50.872;5.306;2022-10-17T15:56:15;4.60;;;2.78;;
25237;SDS011;13185;50.872;5.306;2022-10-17T15:58:45;6.75;;;2.63;;
25237;SDS011;13185;50.872;5.306;2022-10-17T16:01:15;3.90;;;2.20;;
25237;SDS011;13185;50.872;5.306;2022-10-17T16:03:45;4.90;;;2.00;;
25237;SDS011;13185;50.872;5.306;2022-10-17T16:06:13;6.70;;;2.25;;
25237;SDS011;13185;50.872;5.306;2022-10-17T16:08:38;4.05;;;1.95;;
25237;SDS011;13185;50.872;5.306;2022-10-17T16:11:03;4.38;;;2.30;;
25237;SDS011;13185;50.872;5.306;2022-10-17T16:13:29;4.70;;;2.10;;
25237;SDS011;13185;50.872;5.306;2022-10-17T16:15:55;5.68;;;2.28;;
25237;SDS011;13185;50.872;5.306;2022-10-17T16:18:21;2.88;;;1.80;;
25237;SDS011;13185;50.872;5.306;2022-10-17T16:20:46;2.63;;;1.80;;
25237;SDS011;13185;50.872;5.306;2022-10-17T16:23:12;5.35;;;2.25;;
25237;SDS011;13185;50.872;5.306;2022-10-17T16:25:38;2.67;;;1.92;;
25237;SDS011;13185;50.872;5.306;2022-10-17T16:28:04;7.40;;;2.47;;
25237;SDS011;13185;50.872;5.306;2022-10-17T16:30:32;3.45;;;2.22;;
25237;SDS011;13185;50.872;5.306;2022-10-17T16:33:06;5.50;;;2.88;;
25237;SDS011;13185;50.872;5.306;2022-10-17T16:35:34;4.85;;;3.00;;
25237;SDS011;13185;50.872;5.306;2022-10-17T16:37:59;5.63;;;2.65;;
25237;SDS011;13185;50.872;5.306;2022-10-17T16:40:25;3.88;;;1.98;;
25237;SDS011;13185;50.872;5.306;2022-10-17T16:42:50;3.25;;;2.67;;
25237;SDS011;13185;50.872;5.306;2022-10-17T16:45:17;4.53;;;1.80;;
25237;SDS011;13185;50.872;5.306;2022-10-17T16:47:44;6.75;;;1.77;;
25237;SDS011;13185;50.872;5.306;2022-10-17T16:50:10;3.35;;;2.25;;
25237;SDS011;13185;50.872;5.306;2022-10-17T16:52:35;4.32;;;1.80;;
25237;SDS011;13185;50.872;5.306;2022-10-17T16:55:01;3.92;;;2.22;;
25237;SDS011;13185;50.872;5.306;2022-10-17T16:57:26;2.67;;;1.42;;
25237;SDS011;13185;50.872;5.306;2022-10-17T16:59:52;1.88;;;1.50;;
25237;SDS011;13185;50.872;5.306;2022-10-17T17:02:17;6.32;;;2.03;;
25237;SDS011;13185;50.872;5.306;2022-10-17T17:04:43;6.28;;;1.42;;
25237;SDS011;13185;50.872;5.306;2022-10-17T17:07:08;3.60;;;1.42;;
25237;SDS011;13185;50.872;5.306;2022-10-17T17:09:34;6.63;;;1.85;;
25237;SDS011;13185;50.872;5.306;2022-10-17T17:12:00;4.03;;;1.48;;
25237;SDS011;13185;50.872;5.306;2022-10-17T17:14:25;4.18;;;1.60;;
25237;SDS011;13185;50.872;5.306;2022-10-17T17:16:50;3.45;;;1.90;;
25237;SDS011;13185;50.872;5.306;2022-10-17T17:19:16;3.60;;;1.85;;
25237;SDS011;13185;50.872;5.306;2022-10-17T17:21:42;3.08;;;1.90;;
25237;SDS011;13185;50.872;5.306;2022-10-17T17:24:11;3.33;;;2.53;;
25237;SDS011;13185;50.872;5.306;2022-10-17T17:26:37;2.83;;;2.13;;